Time;durP1;ratioP1;P1;durP2;ratioP2;P2;SDS_P1;SDS_P2;PMS_P1;PMS_P2;Temp;Humidity;BMP_temperature;BMP_pressure;BME280_temperature;BME280_humidity;BME280_pressure;Samples;Min_cycle;Max_cycle;Signal;HPM_P1;HPM_P2
2023/11/07 00:02:25;;;;;;;3.38;0.50;;;8.60;99.90;;;;;;4975524;28;20105;-76
2023/11/07 00:04:51;;;;;;;5.10;0.90;;;8.50;99.90;;;;;;4974985;28;20041;-76
2023/11/07 00:07:23;;;;;;;3.67;0.65;;;8.60;99.90;;;;;;4957722;28;20026;-76
2023/11/07 00:09:49;;;;;;;5.07;0.85;;;8.50;99.90;;;;;;4975147;28;20035;-76
2023/11/07 00:12:15;;;;;;;6.20;0.73;;;8.50;99.90;;;;;;4957539;28;20057;-76
2023/11/07 00:14:40;;;;;;;7.18;0.55;;;8.50;99.90;;;;;;4975375;28;20478;-76
2023/11/07 00:17:06;;;;;;;7.25;1.02;;;8.50;99.90;;;;;;4974827;28;20022;-76
2023/11/07 00:19:32;;;;;;;9.00;0.80;;;8.50;99.90;;;;;;4957668;28;20027;-76
2023/11/07 00:21:58;;;;;;;2.00;0.30;;;8.40;99.90;;;;;;4973572;28;20568;-76
2023/11/07 00:24:24;;;;;;;7.60;0.77;;;8.40;99.90;;;;;;4974760;28;20038;-76
2023/11/07 00:26:51;;;;;;;4.60;0.63;;;8.40;99.90;;;;;;4975156;28;20034;-76
2023/11/07 00:29:16;;;;;;;4.93;0.45;;;8.50;99.90;;;;;;4975307;28;20041;-76
2023/11/07 00:31:42;;;;;;;4.88;0.32;;;8.50;99.90;;;;;;4975111;28;20022;-76
2023/11/07 00:34:07;;;;;;;10.05;0.50;;;8.60;99.90;;;;;;4974768;28;20149;-76
2023/11/07 00:36:33;;;;;;;5.60;0.50;;;8.70;99.90;;;;;;4957464;28;20022;-76
2023/11/07 00:39:00;;;;;;;5.80;1.02;;;8.60;99.90;;;;;;4957537;28;20371;-76
2023/11/07 00:41:27;;;;;;;2.83;0.45;;;8.70;99.90;;;;;;4957257;28;20042;-76
2023/11/07 00:43:54;;;;;;;7.72;0.73;;;8.70;99.90;;;;;;4957208;28;20054;-76
2023/11/07 00:46:20;;;;;;;8.15;0.73;;;8.70;99.90;;;;;;4973368;28;20077;-76
2023/11/07 00:48:46;;;;;;;4.38;0.22;;;8.80;99.90;;;;;;4974767;28;20018;-76
2023/11/07 00:51:11;;;;;;;2.28;0.35;;;8.80;99.90;;;;;;4975198;28;20030;-76
2023/11/07 00:53:38;;;;;;;2.35;0.30;;;8.80;99.90;;;;;;4957129;28;20445;-76
2023/11/07 00:56:05;;;;;;;5.43;0.52;;;8.90;99.90;;;;;;4974699;28;20027;-76
2023/11/07 00:58:31;;;;;;;5.65;0.43;;;8.90;99.90;;;;;;4973224;28;20031;-76
2023/11/07 01:00:57;;;;;;;4.53;1.20;;;8.90;99.90;;;;;;4974368;28;20027;-76
2023/11/07 01:03:23;;;;;;;6.60;0.60;;;9.00;99.90;;;;;;4974413;28;20022;-76
2023/11/07 01:05:48;;;;;;;5.82;0.30;;;9.00;99.90;;;;;;4974363;28;20031;-76
2023/11/07 01:08:14;;;;;;;6.85;0.60;;;9.00;99.90;;;;;;4974199;28;20027;-76
2023/11/07 01:10:39;;;;;;;2.03;0.60;;;9.00;99.90;;;;;;4956885;28;20030;-76
2023/11/07 01:13:07;;;;;;;3.90;0.40;;;9.10;99.90;;;;;;4977573;28;20034;-76
2023/11/07 01:15:32;;;;;;;3.60;0.43;;;9.00;99.90;;;;;;4960576;28;20023;-76
2023/11/07 01:17:59;;;;;;;11.23;0.70;;;9.10;99.90;;;;;;4978179;28;20514;-76
2023/11/07 01:20:24;;;;;;;5.07;0.30;;;9.00;99.90;;;;;;4978194;28;20027;-76
2023/11/07 01:22:50;;;;;;;8.25;0.55;;;9.00;99.90;;;;;;4960772;28;20514;-76
2023/11/07 01:25:16;;;;;;;5.43;0.47;;;9.00;99.90;;;;;;4978313;28;20049;-76
2023/11/07 01:27:41;;;;;;;6.20;0.28;;;9.00;99.90;;;;;;4960722;28;20509;-76
2023/11/07 01:30:09;;;;;;;8.48;0.60;;;9.00;99.90;;;;;;4978040;28;20471;-76
2023/11/07 01:32:36;;;;;;;3.15;0.10;;;9.00;99.90;;;;;;4960371;28;20033;-77
2023/11/07 01:35:03;;;;;;;5.28;0.38;;;9.10;99.90;;;;;;4977832;28;20134;-77
2023/11/07 01:37:28;;;;;;;3.65;0.43;;;9.10;99.90;;;;;;4960609;28;20061;-77
2023/11/07 01:39:54;;;;;;;2.83;0.45;;;9.00;99.90;;;;;;4976135;28;20054;-76
2023/11/07 01:42:20;;;;;;;4.05;0.32;;;9.10;99.90;;;;;;4976512;28;20026;-76
2023/11/07 01:44:50;;;;;;;5.45;0.30;;;9.10;99.90;;;;;;4977393;28;20491;-76
2023/11/07 01:47:18;;;;;;;6.57;0.88;;;9.10;99.90;;;;;;4960118;28;20027;-76
2023/11/07 01:49:45;;;;;;;11.40;0.65;;;9.10;99.90;;;;;;4978241;28;20023;-76
2023/11/07 01:52:11;;;;;;;3.85;0.15;;;9.10;99.90;;;;;;4977585;28;20034;-76
2023/11/07 01:54:36;;;;;;;7.82;0.47;;;9.10;99.90;;;;;;4977540;28;20394;-76
2023/11/07 01:57:03;;;;;;;3.33;0.20;;;9.00;99.90;;;;;;4960191;28;20078;-76
2023/11/07 01:59:29;;;;;;;4.60;0.28;;;9.00;99.90;;;;;;4977767;28;20034;-76
2023/11/07 02:02:00;;;;;;;7.55;0.25;;;9.00;99.90;;;;;;4960218;28;20078;-76
2023/11/07 02:04:25;;;;;;;8.07;0.63;;;9.00;99.90;;;;;;4977433;28;20030;-76
2023/11/07 02:06:51;;;;;;;6.18;0.55;;;9.00;99.90;;;;;;4976681;28;20025;-76
2023/11/07 02:09:17;;;;;;;6.80;0.50;;;9.00;99.90;;;;;;4977467;28;20041;-76
2023/11/07 02:11:43;;;;;;;3.47;0.30;;;9.00;99.90;;;;;;4959894;28;20113;-75
2023/11/07 02:14:24;;;;;;;3.88;0.32;;;9.00;99.90;;;;;;4977137;28;20034;-76
2023/11/07 02:16:50;;;;;;;4.95;0.55;;;9.00;99.90;;;;;;4959643;28;20033;-75
2023/11/07 02:19:15;;;;;;;7.90;0.82;;;9.10;99.90;;;;;;4960077;28;20129;-75
2023/11/07 02:21:41;;;;;;;1.08;0.20;;;9.00;99.90;;;;;;4977250;28;20106;-75
2023/11/07 02:24:10;;;;;;;4.72;0.20;;;9.00;99.90;;;;;;4959136;28;20027;-75
2023/11/07 02:26:35;;;;;;;;;;;9.00;99.90;;;;;;4977280;28;20242;-76
2023/11/07 02:29:01;;;;;;;6.10;0.17;;;9.00;99.90;;;;;;4959592;28;20407;-75
2023/11/07 02:31:26;;;;;;;2.53;0.30;;;9.70;99.90;;;;;;4977130;28;20026;-75
2023/11/07 02:33:53;;;;;;;7.15;0.50;;;9.40;99.90;;;;;;4977199;28;20112;-76
2023/11/07 02:36:18;;;;;;;1.63;0.15;;;8.90;99.90;;;;;;4959665;28;20027;-76
2023/11/07 02:38:44;;;;;;;6.47;0.40;;;8.90;99.90;;;;;;4977031;28;20545;-75
2023/11/07 02:41:10;;;;;;;4.65;0.20;;;8.90;99.90;;;;;;4959396;28;20123;-76
2023/11/07 02:43:35;;;;;;;10.18;0.73;;;9.00;99.90;;;;;;4959677;28;20031;-76
2023/11/07 02:46:01;;;;;;;5.57;0.43;;;9.00;99.90;;;;;;4959157;28;20015;-76
2023/11/07 02:48:26;;;;;;;3.90;0.20;;;9.00;99.90;;;;;;4977224;28;20031;-75
2023/11/07 02:50:52;;;;;;;2.20;0.10;;;9.00;99.90;;;;;;4976607;28;20089;-75
2023/11/07 02:53:18;;;;;;;4.90;0.73;;;9.70;99.90;;;;;;4975218;28;20114;-75
2023/11/07 02:55:45;;;;;;;1.45;0.32;;;9.00;99.90;;;;;;4976705;28;20073;-75
2023/11/07 02:58:11;;;;;;;6.07;0.30;;;9.00;99.90;;;;;;4959163;28;20027;-75
2023/11/07 03:00:36;;;;;;;2.38;0.40;;;9.10;99.90;;;;;;4976620;28;20035;-75
2023/11/07 03:03:03;;;;;;;4.10;0.20;;;9.10;99.90;;;;;;4975464;28;20073;-75
2023/11/07 03:05:29;;;;;;;9.30;0.50;;;9.10;99.90;;;;;;4958905;28;20030;-75
2023/11/07 03:07:55;;;;;;;11.75;1.38;;;9.10;99.90;;;;;;4976137;28;20027;-75
2023/11/07 03:10:20;;;;;;;6.65;0.40;;;9.10;99.90;;;;;;4976535;28;20027;-75
2023/11/07 03:12:47;;;;;;;3.17;0.30;;;9.10;99.90;;;;;;4976600;28;20035;-75
2023/11/07 03:15:13;;;;;;;2.17;0.43;;;9.00;99.90;;;;;;4958850;28;20479;-75
2023/11/07 03:17:40;;;;;;;1.95;0.40;;;9.00;99.90;;;;;;4958265;28;20082;-75
2023/11/07 03:20:07;;;;;;;3.00;0.40;;;9.00;99.90;;;;;;4974678;28;20502;-75
2023/11/07 03:22:33;;;;;;;5.28;0.40;;;9.00;99.90;;;;;;4976115;28;20019;-75
2023/11/07 03:24:59;;;;;;;2.35;0.20;;;9.00;99.90;;;;;;4958506;28;20041;-75
2023/11/07 03:27:24;;;;;;;5.50;0.50;;;9.00;99.90;;;;;;4975871;28;20023;-75
2023/11/07 03:29:50;;;;;;;4.47;0.40;;;9.00;99.90;;;;;;4976029;28;20030;-75
2023/11/07 03:32:15;;;;;;;6.60;0.20;;;9.00;99.90;;;;;;4975810;28;20085;-75
2023/11/07 03:34:41;;;;;;;3.42;0.38;;;8.90;99.90;;;;;;4958389;28;20040;-75
2023/11/07 03:37:07;;;;;;;3.97;0.50;;;8.90;99.90;;;;;;4958518;28;20066;-74
2023/11/07 03:39:32;;;;;;;7.80;1.50;;;9.00;99.90;;;;;;4975791;28;20037;-75
2023/11/07 03:41:59;;;;;;;4.43;0.80;;;8.90;99.90;;;;;;4976235;28;20037;-75
2023/11/07 03:44:25;;;;;;;6.28;0.52;;;9.00;99.90;;;;;;4958359;28;20049;-75
2023/11/07 03:46:50;;;;;;;1.80;0.43;;;9.00;99.90;;;;;;4975442;28;20027;-75
2023/11/07 03:49:16;;;;;;;4.22;0.30;;;9.00;99.90;;;;;;4957880;28;20506;-75
2023/11/07 03:51:42;;;;;;;2.97;0.20;;;9.00;99.90;;;;;;4975507;28;20142;-75
2023/11/07 03:54:07;;;;;;;4.55;0.22;;;9.00;99.90;;;;;;4958129;28;20050;-75
2023/11/07 03:56:33;;;;;;;3.15;0.40;;;8.90;99.90;;;;;;4974126;28;20027;-75
2023/11/07 03:58:58;;;;;;;2.60;0.28;;;8.90;99.90;;;;;;4958406;28;20128;-75
2023/11/07 04:01:35;;;;;;;2.42;0.17;;;8.90;99.90;;;;;;4975260;28;20027;-76
2023/11/07 04:04:01;;;;;;;2.70;0.30;;;8.90;99.90;;;;;;4975454;28;20026;-75
2023/11/07 04:06:27;;;;;;;6.30;0.28;;;8.90;99.90;;;;;;4957900;28;20037;-75
2023/11/07 04:08:53;;;;;;;19.00;0.57;;;8.90;99.90;;;;;;4975493;28;20019;-75
2023/11/07 04:11:19;;;;;;;2.13;0.52;;;8.90;99.90;;;;;;4975286;28;20061;-75
2023/11/07 04:13:45;;;;;;;3.88;0.30;;;8.90;99.90;;;;;;4975279;28;20442;-75
2023/11/07 04:16:10;;;;;;;1.13;0.28;;;8.90;99.90;;;;;;4958023;28;20019;-76
2023/11/07 04:18:36;;;;;;;3.88;0.40;;;8.90;99.90;;;;;;4975032;28;20034;-75
2023/11/07 04:21:04;;;;;;;3.00;0.68;;;8.90;99.90;;;;;;4974839;28;20033;-75
2023/11/07 04:23:29;;;;;;;6.93;0.63;;;8.90;99.90;;;;;;4957917;28;20031;-75
2023/11/07 04:25:55;;;;;;;4.80;0.17;;;8.80;99.90;;;;;;4957644;28;20077;-75
2023/11/07 04:28:21;;;;;;;3.17;0.32;;;8.80;99.90;;;;;;4975037;28;20383;-75
2023/11/07 04:30:46;;;;;;;8.20;1.17;;;8.80;99.90;;;;;;4974874;28;20038;-75
2023/11/07 04:33:12;;;;;;;3.25;0.55;;;8.80;99.90;;;;;;4957858;28;20015;-75
2023/11/07 04:35:39;;;;;;;5.45;0.65;;;8.70;99.90;;;;;;4957680;28;20077;-75
2023/11/07 04:38:05;;;;;;;2.97;0.10;;;8.70;99.90;;;;;;4974722;28;20023;-75
2023/11/07 04:40:30;;;;;;;4.30;0.22;;;9.50;99.90;;;;;;4975089;28;20066;-75
2023/11/07 04:42:56;;;;;;;5.28;0.65;;;8.60;99.90;;;;;;4975099;28;20154;-75
2023/11/07 04:45:21;;;;;;;6.63;1.02;;;8.50;99.90;;;;;;4974884;28;20023;-75
2023/11/07 04:47:48;;;;;;;3.38;0.35;;;8.50;99.90;;;;;;4977391;28;20019;-75
2023/11/07 04:50:17;;;;;;;8.20;1.08;;;8.40;99.90;;;;;;4961310;28;20023;-75
2023/11/07 04:52:43;;;;;;;3.95;0.35;;;8.40;99.90;;;;;;4978516;28;20034;-75
2023/11/07 04:55:09;;;;;;;5.78;0.68;;;8.40;99.90;;;;;;4961444;28;20483;-75
2023/11/07 04:57:34;;;;;;;2.22;0.22;;;8.40;99.90;;;;;;4978811;28;20042;-75
2023/11/07 05:00:00;;;;;;;3.75;0.35;;;8.30;99.90;;;;;;4979021;28;20379;-75
2023/11/07 05:02:25;;;;;;;4.47;0.30;;;8.20;99.90;;;;;;4978939;28;20023;-75
2023/11/07 05:04:52;;;;;;;4.90;0.47;;;8.30;99.90;;;;;;4978519;28;20030;-74
2023/11/07 05:07:18;;;;;;;3.28;0.63;;;8.20;99.90;;;;;;4977173;28;20019;-76
2023/11/07 05:09:43;;;;;;;5.00;0.38;;;8.20;99.90;;;;;;4960803;28;20077;-76
2023/11/07 05:12:11;;;;;;;4.25;0.20;;;8.20;99.90;;;;;;4978148;28;20038;-76
2023/11/07 05:14:36;;;;;;;4.05;0.57;;;8.20;99.90;;;;;;4978046;28;20031;-76
2023/11/07 05:17:02;;;;;;;6.40;0.80;;;9.00;99.90;;;;;;4977993;28;20439;-76
2023/11/07 05:19:27;;;;;;;3.97;0.90;;;8.10;99.90;;;;;;4978170;28;20054;-76
2023/11/07 05:21:53;;;;;;;7.90;1.45;;;8.00;99.90;;;;;;4960515;28;20483;-76
2023/11/07 05:24:19;;;;;;;6.47;1.20;;;8.10;99.90;;;;;;4976649;28;20030;-76
2023/11/07 05:26:44;;;;;;;3.92;0.43;;;8.10;99.90;;;;;;4977805;28;20054;-76
2023/11/07 05:29:14;;;;;;;4.85;0.70;;;8.00;99.90;;;;;;4977966;28;20513;-76
2023/11/07 05:31:40;;;;;;;2.55;0.30;;;8.00;99.90;;;;;;4976673;28;20029;-76
2023/11/07 05:34:06;;;;;;;5.85;1.13;;;7.90;99.90;;;;;;4977717;28;20414;-76
2023/11/07 05:36:32;;;;;;;4.43;0.50;;;7.90;99.90;;;;;;4977793;28;20035;-76
2023/11/07 05:38:58;;;;;;;2.50;0.82;;;7.90;99.90;;;;;;4978175;28;20110;-76
2023/11/07 05:41:25;;;;;;;4.05;0.60;;;7.90;99.90;;;;;;4977759;28;20077;-76
2023/11/07 05:43:51;;;;;;;2.45;1.17;;;7.90;99.90;;;;;;4977614;28;20074;-76
2023/11/07 05:46:18;;;;;;;6.40;0.95;;;7.90;99.90;;;;;;4960150;28;20090;-76
2023/11/07 05:48:44;;;;;;;5.47;0.30;;;7.90;99.90;;;;;;4960260;28;20482;-76
2023/11/07 05:51:10;;;;;;;4.53;0.63;;;7.90;99.90;;;;;;4960062;28;20101;-76
2023/11/07 05:53:35;;;;;;;4.95;0.93;;;7.90;99.90;;;;;;4977305;28;20121;-76
2023/11/07 05:56:01;;;;;;;7.63;1.33;;;7.80;99.90;;;;;;4977635;28;20030;-76
2023/11/07 05:58:27;;;;;;;6.97;1.35;;;7.80;99.90;;;;;;4974864;28;20050;-76
2023/11/07 06:00:55;;;;;;;4.57;0.57;;;7.80;99.90;;;;;;4960110;28;20023;-76
2023/11/07 06:03:21;;;;;;;3.22;1.00;;;7.80;99.90;;;;;;4960098;28;20030;-76
2023/11/07 06:05:46;;;;;;;3.17;0.98;;;7.70;99.90;;;;;;4977311;28;20166;-76
2023/11/07 06:08:12;;;;;;;6.43;1.52;;;7.70;99.90;;;;;;4977688;28;20030;-76
2023/11/07 06:10:40;;;;;;;2.58;0.73;;;7.60;99.90;;;;;;4977990;28;20038;-77
2023/11/07 06:13:06;;;;;;;5.93;1.50;;;7.60;99.90;;;;;;4977253;28;20494;-76
2023/11/07 06:15:32;;;;;;;5.15;1.83;;;7.60;99.90;;;;;;4977474;28;20101;-76
2023/11/07 06:17:58;;;;;;;3.38;1.20;;;7.60;99.90;;;;;;4977313;28;20082;-76
2023/11/07 06:20:24;;;;;;;5.25;1.35;;;7.60;99.90;;;;;;4977012;28;20032;-76
2023/11/07 06:22:50;;;;;;;4.82;1.33;;;7.50;99.90;;;;;;4977119;28;20023;-76
2023/11/07 06:25:16;;;;;;;6.85;1.38;;;8.40;99.90;;;;;;4976880;28;20022;-76
2023/11/07 06:27:42;;;;;;;9.13;1.23;;;7.60;99.90;;;;;;4976909;28;20030;-76
2023/11/07 06:30:09;;;;;;;9.10;1.85;;;7.50;99.90;;;;;;4959485;28;20390;-76
2023/11/07 06:32:36;;;;;;;6.95;2.22;;;7.40;99.90;;;;;;4976820;28;20086;-76
2023/11/07 06:35:06;;;;;;;7.13;1.40;;;7.40;99.90;;;;;;4975615;28;20399;-76
2023/11/07 06:37:35;;;;;;;5.55;1.08;;;7.40;99.90;;;;;;4959139;28;20030;-76
2023/11/07 06:40:04;;;;;;;6.35;1.63;;;7.40;99.90;;;;;;4959368;28;20027;-76
2023/11/07 06:42:30;;;;;;;10.90;1.55;;;7.40;99.90;;;;;;4976455;28;20479;-76
2023/11/07 06:44:55;;;;;;;4.90;1.23;;;7.40;99.90;;;;;;4976480;28;20066;-76
2023/11/07 06:47:21;;;;;;;3.85;1.38;;;7.30;99.90;;;;;;4976448;28;20098;-76
2023/11/07 06:49:47;;;;;;;3.13;1.35;;;7.30;99.90;;;;;;4976486;28;20026;-76
2023/11/07 06:52:12;;;;;;;5.57;1.50;;;7.40;99.90;;;;;;4976337;28;20085;-76
2023/11/07 06:54:38;;;;;;;6.00;1.38;;;7.40;99.90;;;;;;4976567;28;20035;-76
2023/11/07 06:57:03;;;;;;;5.70;2.97;;;7.40;99.90;;;;;;4958752;28;20053;-76
2023/11/07 06:59:31;;;;;;;9.15;2.42;;;7.40;99.90;;;;;;4974974;28;20023;-76
2023/11/07 07:01:57;;;;;;;7.53;2.13;;;7.50;99.90;;;;;;4976443;28;20046;-76
2023/11/07 07:04:22;;;;;;;5.78;1.98;;;7.50;99.90;;;;;;4959350;28;20100;-76
2023/11/07 07:06:48;;;;;;;4.85;2.17;;;7.60;99.90;;;;;;4958968;28;20023;-76
2023/11/07 07:09:13;;;;;;;10.60;2.03;;;7.60;99.90;;;;;;4974552;28;20029;-76
2023/11/07 07:11:40;;;;;;;8.00;1.65;;;7.70;99.90;;;;;;4975985;28;20031;-76
2023/11/07 07:14:05;;;;;;;9.07;2.13;;;7.70;99.90;;;;;;4958441;28;20034;-76
2023/11/07 07:16:32;;;;;;;10.90;2.88;;;7.80;99.90;;;;;;4975771;28;20110;-76
2023/11/07 07:18:57;;;;;;;4.32;1.63;;;7.80;99.90;;;;;;4975959;28;20055;-76
2023/11/07 07:21:25;;;;;;;6.65;2.03;;;7.80;99.90;;;;;;4975945;28;20633;-76
2023/11/07 07:23:50;;;;;;;4.75;1.70;;;7.80;99.90;;;;;;4975908;28;20074;-77
2023/11/07 07:26:16;;;;;;;9.75;2.15;;;7.80;99.90;;;;;;4958454;28;20063;-76
2023/11/07 07:28:41;;;;;;;7.13;2.10;;;7.80;99.90;;;;;;4975730;28;20081;-76
2023/11/07 07:31:07;;;;;;;11.93;1.83;;;7.80;99.90;;;;;;4976228;28;20037;-76
2023/11/07 07:33:37;;;;;;;12.93;2.17;;;7.80;99.90;;;;;;4976199;28;20379;-76
2023/11/07 07:36:04;;;;;;;8.95;2.22;;;7.90;99.90;;;;;;4975564;28;20486;-76
2023/11/07 07:38:35;;;;;;;4.63;1.88;;;7.90;99.90;;;;;;4975390;28;20438;-76
2023/11/07 07:41:01;;;;;;;10.57;2.55;;;7.90;99.90;;;;;;4975341;28;20037;-76
2023/11/07 07:43:27;;;;;;;7.25;2.83;;;8.00;99.90;;;;;;4975463;28;20027;-76
2023/11/07 07:45:55;;;;;;;5.93;2.33;;;8.90;99.90;;;;;;4975988;28;20026;-76
2023/11/07 07:48:21;;;;;;;6.38;2.55;;;8.80;99.90;;;;;;4975491;28;20023;-76
2023/11/07 07:50:46;;;;;;;9.63;3.58;;;8.00;99.90;;;;;;4958164;28;20030;-76
2023/11/07 07:53:16;;;;;;;8.32;2.40;;;8.00;99.90;;;;;;4975321;28;20030;-76
2023/11/07 07:55:43;;;;;;;5.38;2.33;;;8.80;99.90;;;;;;4957844;28;20045;-76
2023/11/07 07:58:09;;;;;;;6.85;2.90;;;8.00;99.90;;;;;;4975054;28;20026;-76
2023/11/07 08:00:37;;;;;;;5.30;2.58;;;8.10;99.90;;;;;;4975269;28;20498;-76
2023/11/07 08:03:06;;;;;;;5.65;2.90;;;8.00;99.90;;;;;;4974945;28;20023;-76
2023/11/07 08:05:38;;;;;;;6.85;2.80;;;8.00;99.90;;;;;;4957512;28;20027;-76
2023/11/07 08:08:04;;;;;;;10.20;2.75;;;8.10;99.90;;;;;;4975204;28;20015;-76
2023/11/07 08:10:29;;;;;;;5.97;2.40;;;8.10;99.90;;;;;;4974020;28;20027;-76
2023/11/07 08:12:56;;;;;;;5.72;2.15;;;8.10;99.90;;;;;;4957826;28;20030;-76
2023/11/07 08:15:22;;;;;;;10.00;2.10;;;8.20;99.90;;;;;;4974962;28;20026;-76
2023/11/07 08:17:50;;;;;;;8.23;3.20;;;8.40;99.90;;;;;;4974785;28;20049;-76
2023/11/07 08:20:19;;;;;;;7.22;2.40;;;8.40;99.90;;;;;;4975056;28;20015;-76
2023/11/07 08:22:46;;;;;;;9.18;2.25;;;8.50;99.90;;;;;;4956922;28;20022;-76
2023/11/07 08:25:13;;;;;;;8.23;2.47;;;8.50;99.90;;;;;;4975427;28;20065;-76
2023/11/07 08:27:44;;;;;;;9.73;3.08;;;8.60;99.90;;;;;;4975383;28;20121;-77
2023/11/07 08:30:12;;;;;;;10.60;3.47;;;8.60;99.90;;;;;;4957809;28;20050;-76
2023/11/07 08:32:42;;;;;;;5.43;2.22;;;8.60;99.90;;;;;;4975198;28;20471;-76
2023/11/07 08:35:11;;;;;;;5.97;2.08;;;8.60;99.90;;;;;;4974920;28;20027;-76
2023/11/07 08:37:38;;;;;;;7.22;2.50;;;8.60;99.90;;;;;;4974850;28;20118;-76
2023/11/07 08:40:06;;;;;;;7.93;2.30;;;8.70;99.90;;;;;;4974548;28;20077;-76
2023/11/07 08:42:32;;;;;;;7.35;1.85;;;8.70;99.90;;;;;;4974550;28;20023;-76
2023/11/07 08:44:59;;;;;;;12.13;2.58;;;8.80;99.90;;;;;;4957147;28;20023;-74
2023/11/07 08:47:28;;;;;;;6.72;2.03;;;8.90;99.90;;;;;;4975144;28;20026;-74
2023/11/07 08:49:57;;;;;;;5.88;1.83;;;8.90;99.90;;;;;;4975585;28;20466;-74
2023/11/07 08:52:26;;;;;;;;;;;9.00;99.90;;;;;;4975012;28;20453;-74
2023/11/07 08:54:52;;;;;;;4.35;1.25;;;9.00;99.90;;;;;;4974558;28;19906;-74
2023/11/07 08:57:18;;;;;;;2.90;1.10;;;9.00;99.90;;;;;;4973792;28;20545;-74
2023/11/07 08:59:44;;;;;;;6.10;1.35;;;9.00;99.90;;;;;;4973470;28;20030;-74
2023/11/07 09:02:11;;;;;;;4.40;1.10;;;9.00;99.90;;;;;;4955583;28;20054;-74
2023/11/07 09:04:37;;;;;;;5.60;1.95;;;9.10;99.90;;;;;;4972918;28;20054;-74
2023/11/07 09:07:03;;;;;;;6.60;1.20;;;9.20;99.90;;;;;;4973378;28;20029;-76
2023/11/07 09:09:30;;;;;;;4.15;1.45;;;9.30;99.90;;;;;;4974362;28;20094;-76
2023/11/07 09:11:56;;;;;;;3.47;0.80;;;9.30;99.90;;;;;;4974307;28;20015;-76
2023/11/07 09:14:21;;;;;;;3.25;0.45;;;9.50;99.90;;;;;;4974264;28;20047;-76
2023/11/07 09:16:48;;;;;;;2.40;0.73;;;9.60;99.90;;;;;;4973332;28;20479;-76
2023/11/07 09:19:13;;;;;;;2.88;0.82;;;9.70;99.90;;;;;;4974584;28;20038;-76
2023/11/07 09:21:43;;;;;;;3.30;0.45;;;9.80;99.90;;;;;;4973569;28;20133;-76
2023/11/07 09:24:08;;;;;;;2.25;0.70;;;9.80;99.90;;;;;;4974279;28;20486;-76
2023/11/07 09:26:34;;;;;;;2.35;0.55;;;9.80;99.90;;;;;;4956744;28;20034;-75
2023/11/07 09:28:59;;;;;;;5.68;0.65;;;9.80;99.90;;;;;;4974340;28;20070;-76
2023/11/07 09:31:25;;;;;;;1.77;0.40;;;9.70;99.90;;;;;;4974944;28;20093;-76
2023/11/07 09:33:51;;;;;;;4.80;0.85;;;9.80;99.90;;;;;;4976637;28;20363;-76
2023/11/07 09:36:16;;;;;;;4.75;0.82;;;9.80;99.90;;;;;;4977751;28;20031;-76
2023/11/07 09:38:42;;;;;;;3.38;0.52;;;9.80;99.90;;;;;;4977872;28;20030;-76
2023/11/07 09:41:08;;;;;;;8.75;1.30;;;10.00;99.90;;;;;;4977758;28;20406;-76
2023/11/07 09:43:34;;;;;;;2.35;0.32;;;10.00;99.90;;;;;;4960293;28;20125;-76
2023/11/07 09:46:01;;;;;;;2.30;0.22;;;10.10;99.90;;;;;;4960529;28;20126;-76
2023/11/07 09:48:30;;;;;;;1.05;0.10;;;10.30;99.90;;;;;;4977547;28;20062;-76
2023/11/07 09:50:58;;;;;;;3.08;0.40;;;10.50;99.90;;;;;;4977884;28;20030;-76
2023/11/07 09:53:24;;;;;;;0.80;0.00;;;10.30;99.90;;;;;;4977754;28;20022;-76
2023/11/07 09:55:52;;;;;;;2.22;0.20;;;10.30;99.90;;;;;;4977297;28;20709;-76
2023/11/07 09:58:28;;;;;;;1.20;0.32;;;10.40;99.90;;;;;;4959816;28;20058;-76
2023/11/07 10:00:57;;;;;;;0.60;0.20;;;10.40;99.90;;;;;;4977744;28;20042;-76
2023/11/07 10:03:23;;;;;;;4.30;0.63;;;10.40;99.90;;;;;;4959955;28;20491;-76
2023/11/07 10:05:49;;;;;;;1.63;0.25;;;10.60;99.90;;;;;;4959915;28;20030;-77
2023/11/07 10:08:18;;;;;;;10.55;1.17;;;10.70;99.90;;;;;;4977422;28;20495;-76
2023/11/07 10:11:04;;;;;;;0.85;0.17;;;10.70;99.90;;;;;;4960186;28;20026;-77
2023/11/07 10:13:29;;;;;;;2.70;0.40;;;10.80;99.90;;;;;;4976859;28;20383;-77
2023/11/07 10:16:06;;;;;;;1.48;0.10;;;10.90;99.90;;;;;;4977139;28;20026;-77
2023/11/07 10:18:49;;;;;;;5.93;0.80;;;11.10;99.90;;;;;;4977119;28;20041;-76
2023/11/07 10:21:29;;;;;;;2.90;0.05;;;11.20;99.90;;;;;;4977000;28;20102;-77
2023/11/07 10:23:57;;;;;;;0.77;0.10;;;11.20;99.90;;;;;;4977279;28;20034;-76
2023/11/07 10:26:24;;;;;;;1.65;0.00;;;11.20;99.90;;;;;;4977200;28;20368;-77
2023/11/07 10:29:13;;;;;;;1.70;0.17;;;11.40;99.90;;;;;;4976891;28;20015;-77
2023/11/07 10:31:42;;;;;;;2.10;0.20;;;11.40;99.90;;;;;;4959431;28;20027;-77
2023/11/07 10:34:15;;;;;;;2.80;0.10;;;11.70;99.90;;;;;;4976842;28;20023;-77
2023/11/07 10:36:41;;;;;;;0.73;0.05;;;11.90;99.90;;;;;;4976571;28;20023;-77
2023/11/07 10:39:16;;;;;;;3.13;0.20;;;12.00;99.90;;;;;;4959157;28;20026;-77
2023/11/07 10:41:43;;;;;;;1.15;0.00;;;11.80;99.90;;;;;;4977070;28;20102;-76
2023/11/07 10:44:25;;;;;;;1.17;0.00;;;11.80;99.90;;;;;;4976203;28;20034;-76
2023/11/07 10:46:57;;;;;;;5.38;0.20;;;11.70;99.90;;;;;;4975840;28;20023;-76
2023/11/07 10:49:22;;;;;;;1.98;0.30;;;11.70;99.90;;;;;;4976660;28;20482;-76
2023/11/07 10:51:49;;;;;;;2.72;0.10;;;11.90;99.90;;;;;;4959057;28;20022;-76
2023/11/07 10:54:21;;;;;;;2.95;0.00;;;11.80;99.90;;;;;;4976612;28;20031;-77
2023/11/07 10:56:48;;;;;;;2.17;0.00;;;11.80;99.90;;;;;;4976152;28;20031;-77
2023/11/07 10:59:24;;;;;;;2.53;0.52;;;11.90;99.90;;;;;;4976136;28;20019;-76
2023/11/07 11:01:51;;;;;;;1.23;0.10;;;11.90;99.90;;;;;;4976202;28;20102;-76
2023/11/07 11:04:20;;;;;;;4.13;0.20;;;11.90;99.90;;;;;;4958605;28;20387;-77
2023/11/07 11:06:53;;;;;;;2.67;0.08;;;11.80;99.90;;;;;;4975965;28;20499;-77
2023/11/07 11:09:21;;;;;;;1.00;0.00;;;11.80;99.90;;;;;;4976030;28;20023;-77
2023/11/07 11:11:50;;;;;;;2.15;0.10;;;11.80;99.90;;;;;;4958784;28;20025;-77
2023/11/07 11:14:16;;;;;;;2.45;0.00;;;11.80;99.90;;;;;;4975978;28;20035;-77
2023/11/07 11:16:43;;;;;;;4.95;0.70;;;11.90;99.90;;;;;;4976196;28;20101;-77
2023/11/07 11:19:45;;;;;;;2.00;0.05;;;11.90;99.90;;;;;;4975763;28;20033;-76
2023/11/07 11:22:38;;;;;;;5.18;0.20;;;11.90;99.90;;;;;;4958888;28;20115;-76
2023/11/07 11:25:43;;;;;;;4.75;0.15;;;11.90;99.90;;;;;;4958583;28;20130;-76
2023/11/07 11:28:12;;;;;;;1.80;0.00;;;12.00;99.90;;;;;;4958473;28;20041;-77
2023/11/07 11:30:38;;;;;;;3.83;0.35;;;11.80;99.90;;;;;;4975596;28;20026;-77
2023/11/07 11:33:11;;;;;;;2.58;0.85;;;12.10;99.90;;;;;;4975406;28;20086;-77
2023/11/07 11:35:39;;;;;;;2.15;0.20;;;12.20;99.90;;;;;;4975400;28;20505;-77
2023/11/07 11:38:20;;;;;;;2.65;0.38;;;12.30;99.90;;;;;;4958116;28;20105;-76
2023/11/07 11:40:57;;;;;;;3.95;0.00;;;12.30;99.90;;;;;;4958186;28;20101;-77
2023/11/07 11:43:34;;;;;;;4.68;0.73;;;12.30;99.90;;;;;;4957992;28;20019;-77
2023/11/07 11:46:13;;;;;;;6.35;0.10;;;12.50;99.90;;;;;;4975221;28;20030;-77
2023/11/07 11:48:50;;;;;;;1.65;0.10;;;12.50;99.90;;;;;;4975337;28;20098;-77
2023/11/07 11:51:41;;;;;;;2.33;0.17;;;12.60;99.90;;;;;;4975305;28;20035;-77
2023/11/07 11:54:12;;;;;;;1.75;0.05;;;12.60;99.90;;;;;;4957816;28;20029;-77
2023/11/07 11:56:50;;;;;;;1.10;0.03;;;12.80;99.90;;;;;;4957564;28;20023;-77
2023/11/07 11:59:17;;;;;;;1.65;0.30;;;12.80;99.90;;;;;;4975004;28;20015;-77
2023/11/07 12:01:58;;;;;;;2.50;0.25;;;12.90;99.90;;;;;;4974968;28;20027;-77
2023/11/07 12:04:35;;;;;;;4.30;0.13;;;13.00;99.90;;;;;;4974941;28;20023;-77
2023/11/07 12:07:06;;;;;;;2.38;0.00;;;13.10;99.90;;;;;;4974897;28;20026;-77
2023/11/07 12:09:39;;;;;;;4.10;0.00;;;13.00;99.90;;;;;;4957586;28;20502;-77
2023/11/07 12:12:07;;;;;;;1.77;0.00;;;13.00;99.90;;;;;;4974886;28;20027;-77
2023/11/07 12:14:33;;;;;;;3.72;0.25;;;13.00;99.90;;;;;;4974922;28;20038;-77
2023/11/07 12:17:00;;;;;;;1.67;0.03;;;12.80;99.90;;;;;;4974594;28;20034;-77
2023/11/07 12:19:26;;;;;;;1.33;0.00;;;12.70;99.90;;;;;;4973447;28;20027;-77
2023/11/07 12:21:53;;;;;;;3.15;0.10;;;12.60;99.90;;;;;;4957547;28;20066;-77
2023/11/07 12:24:20;;;;;;;2.50;0.35;;;12.50;99.90;;;;;;4974687;28;20031;-77
2023/11/07 12:26:46;;;;;;;1.63;0.10;;;12.60;99.90;;;;;;4974755;28;20022;-76
2023/11/07 12:29:12;;;;;;;3.75;0.38;;;12.60;99.90;;;;;;4974827;28;20031;-77
2023/11/07 12:31:39;;;;;;;2.88;0.00;;;12.80;99.90;;;;;;4974904;28;20034;-77
2023/11/07 12:34:07;;;;;;;4.00;0.20;;;12.90;99.90;;;;;;4957152;28;20077;-77
2023/11/07 12:36:40;;;;;;;3.25;0.10;;;12.60;99.90;;;;;;4974540;28;20023;-77
2023/11/07 12:39:08;;;;;;;2.95;0.35;;;12.60;99.90;;;;;;4957500;28;20134;-77
2023/11/07 12:41:35;;;;;;;4.05;0.00;;;12.50;99.90;;;;;;4973511;28;20019;-77
2023/11/07 12:44:11;;;;;;;4.13;0.05;;;12.50;99.90;;;;;;4974455;28;20431;-77
2023/11/07 12:46:39;;;;;;;2.17;0.00;;;12.50;99.90;;;;;;4974698;28;20102;-76
2023/11/07 12:49:05;;;;;;;5.68;0.50;;;12.50;99.90;;;;;;4974492;28;20023;-76
2023/11/07 12:51:35;;;;;;;2.42;0.85;;;12.30;99.90;;;;;;4957116;28;20029;-77
2023/11/07 12:54:04;;;;;;;1.55;0.00;;;12.20;99.90;;;;;;4974737;28;20023;-77
2023/11/07 12:56:29;;;;;;;3.22;0.10;;;12.50;99.90;;;;;;4973462;28;20019;-77
2023/11/07 12:59:08;;;;;;;3.53;0.32;;;12.40;99.90;;;;;;4974388;28;20027;-76